Terminal Aerodrome Forecast
Issued by NWS

Home | Current Version | Previous Version | Text Only | Print | Product List | Glossary On
Versions: 1 2 3 4 5 6 7 8 9 10 11 12
000
FTPQ31 PGUM 171737
TAFTYA
TAF
PTYA 171737Z 1718/1818 07010KT P6SM VCSH SCT016 BKN130
      TEMPO 1806/1810 07014G22KT 3SM SHRA BKN016 OVC130=

USA.gov is the U.S. government's official web portal to all federal, state and local government web resources and services.